Terminal Aerodrome Forecast
Issued by NWS Wilmington, NC

Home | Current Version | Previous Version | Text Only | Print | Product List | Glossary On
Versions: 1 2 3 4 5 6 7 8 9 10 11 12
000
FTUS42 KILM 220520
TAFFLO
TAF
KFLO 220520Z 2206/2306 00000KT P6SM BKN250
     FM221100 00000KT 5SM BR SCT250
     FM221300 09006KT P6SM SCT250
     FM221800 12008KT P6SM SCT045
     FM230000 11005KT P6SM BKN100=

USA.gov is the U.S. government's official web portal to all federal, state and local government web resources and services.